Time;durP1;ratioP1;P1;durP2;ratioP2;P2;SDS_P1;SDS_P2;PMS_P1;PMS_P2;Temp;Humidity;BMP_temperature;BMP_pressure;BME280_temperature;BME280_humidity;BME280_pressure;Samples;Min_cycle;Max_cycle;Signal;HPM_P1;HPM_P2
2023/09/19 00:01:33;;;;;;;1999.90;999.90;;;;;;;;;;5082200;28;20938;-86
2023/09/19 00:04:02;;;;;;;1999.90;999.90;;;;;;;;;;5085420;28;20052;-87
2023/09/19 00:06:31;;;;;;;1999.90;999.90;;;;;;;;;;5082105;28;20341;-87
2023/09/19 00:08:59;;;;;;;1999.90;999.90;;;;;;;;;;5076841;28;20060;-88
2023/09/19 00:11:27;;;;;;;1999.90;999.90;;;;;;;;;;5087968;28;20096;-87
2023/09/19 00:13:53;;;;;;;1999.90;999.90;;;;;;;;;;5087016;28;20059;-87
2023/09/19 00:16:20;;;;;;;1999.90;999.90;;;;;;;;;;5080700;28;20941;-87
2023/09/19 00:18:48;;;;;;;1999.90;999.90;;;;;;;;;;5083344;28;20130;-87
2023/09/19 00:21:16;;;;;;;1999.90;999.90;;;;;;;;;;5089574;28;20075;-86
2023/09/19 00:23:43;;;;;;;1999.90;999.90;;;;;;;;;;5088875;28;20392;-87
2023/09/19 00:26:09;;;;;;;1999.90;999.90;;;;;;;;;;5091454;28;20059;-86
2023/09/19 00:28:36;;;;;;;1999.90;999.90;;;;;;;;;;5087753;28;20043;-87
2023/09/19 00:31:02;;;;;;;1999.90;999.90;;;;;;;;;;5086708;28;20416;-86
2023/09/19 00:33:30;;;;;;;1999.90;999.90;;;;;;;;;;5086922;28;20051;-86
2023/09/19 00:35:58;;;;;;;1999.90;999.90;;;;;;;;;;5081150;28;20040;-86
2023/09/19 00:38:26;;;;;;;1999.90;999.90;;;;;;;;;;5088290;28;20564;-87
2023/09/19 00:40:54;;;;;;;1999.90;999.90;;;;;;;;;;5090165;28;20043;-86
2023/09/19 00:43:21;;;;;;;1999.90;999.90;;;;;;;;;;5087765;28;20521;-87
2023/09/19 00:45:51;;;;;;;1999.90;999.90;;;;;;;;;;5099419;28;20488;-87
2023/09/19 00:48:18;;;;;;;1999.90;999.90;;;;;;;;;;5091735;28;20109;-86
2023/09/19 00:50:45;;;;;;;1999.90;999.90;;;;;;;;;;5084650;28;20055;-86
2023/09/19 00:53:15;;;;;;;1999.90;999.90;;;;;;;;;;5086804;28;20075;-86
2023/09/19 00:55:43;;;;;;;1999.90;999.90;;;;;;;;;;5086107;28;20131;-86
2023/09/19 00:58:11;;;;;;;1999.90;999.90;;;;;;;;;;5082473;28;20043;-87
2023/09/19 01:00:38;;;;;;;1999.90;999.90;;;;;;;;;;5084397;28;20047;-86
2023/09/19 01:03:06;;;;;;;1999.90;999.90;;;;;;;;;;5079760;22;20147;-83
2023/09/19 01:05:34;;;;;;;1999.90;999.90;;;;;;;;;;5055972;28;20060;-84
2023/09/19 01:08:01;;;;;;;1999.90;999.90;;;;;;;;;;5057802;28;20053;-85
2023/09/19 01:10:27;;;;;;;1999.90;999.90;;;;;;;;;;5049689;28;20113;-83
2023/09/19 01:13:02;;;;;;;1999.90;999.90;;;;;;;;;;5054891;28;20051;-84
2023/09/19 01:15:34;;;;;;;1999.90;999.90;;;;;;;;;;5056029;28;20083;-83
2023/09/19 01:18:04;;;;;;;1999.90;999.90;;;;;;;;;;5058982;28;20423;-84
2023/09/19 01:20:40;;;;;;;1999.90;999.90;;;;;;;;;;5059315;28;20066;-84
2023/09/19 01:23:14;;;;;;;1999.90;999.90;;;;;;;;;;5055787;28;20060;-85
2023/09/19 01:26:10;;;;;;;1999.90;999.90;;;;;;;;;;5058633;28;20048;-86
2023/09/19 01:29:14;;;;;;;1999.90;999.90;;;;;;;;;;5054650;28;20479;-84
2023/09/19 01:31:43;;;;;;;1999.90;999.90;;;;;;;;;;5057857;28;20053;-85
2023/09/19 01:34:10;;;;;;;1999.90;999.90;;;;;;;;;;5058896;28;20383;-83
2023/09/19 01:36:38;;;;;;;1999.90;999.90;;;;;;;;;;5055983;28;20040;-84
2023/09/19 01:39:10;;;;;;;1999.90;999.90;;;;;;;;;;5058372;28;20152;-84
2023/09/19 01:41:57;;;;;;;1999.90;999.90;;;;;;;;;;5058570;28;20045;-84
2023/09/19 01:44:29;;;;;;;1999.90;999.90;;;;;;;;;;5060590;28;20068;-84
2023/09/19 01:46:59;;;;;;;1999.90;999.90;;;;;;;;;;5056125;28;20512;-83
2023/09/19 01:49:35;;;;;;;1999.90;999.90;;;;;;;;;;5058629;28;20052;-82
2023/09/19 01:52:07;;;;;;;1999.90;999.90;;;;;;;;;;5061477;28;20111;-83
2023/09/19 01:54:38;;;;;;;1999.90;999.90;;;;;;;;;;5061049;28;20052;-83
2023/09/19 01:57:09;;;;;;;1999.90;999.90;;;;;;;;;;5055349;28;20068;-84
2023/09/19 01:59:40;;;;;;;1999.90;999.90;;;;;;;;;;5059172;28;20443;-83
2023/09/19 02:02:08;;;;;;;1999.90;999.90;;;;;;;;;;5062108;28;20067;-83
2023/09/19 02:04:35;;;;;;;1999.90;999.90;;;;;;;;;;5061567;28;20056;-83
2023/09/19 02:07:02;;;;;;;1999.90;999.90;;;;;;;;;;5061970;28;20522;-83
2023/09/19 02:09:29;;;;;;;1999.90;999.90;;;;;;;;;;5058425;28;20052;-82
2023/09/19 02:11:55;;;;;;;1999.90;999.90;;;;;;;;;;5059915;28;20515;-83
2023/09/19 02:14:22;;;;;;;1999.90;999.90;;;;;;;;;;5054918;28;20135;-83
2023/09/19 02:16:49;;;;;;;1999.90;999.90;;;;;;;;;;5057794;28;20052;-83
2023/09/19 02:19:17;;;;;;;1999.90;999.90;;;;;;;;;;5059320;28;20075;-83
2023/09/19 02:21:44;;;;;;;1999.90;999.90;;;;;;;;;;5057029;28;20295;-83
2023/09/19 02:24:12;;;;;;;1999.90;999.90;;;;;;;;;;5063213;28;20060;-83
2023/09/19 02:26:38;;;;;;;1999.90;999.90;;;;;;;;;;5058765;28;20044;-83
2023/09/19 02:29:05;;;;;;;1999.90;999.90;;;;;;;;;;5060462;28;20061;-82
2023/09/19 02:31:32;;;;;;;1999.90;999.90;;;;;;;;;;5058742;28;20045;-84
2023/09/19 02:33:59;;;;;;;1999.90;999.90;;;;;;;;;;5053657;28;20056;-84
2023/09/19 02:36:27;;;;;;;1999.90;999.90;;;;;;;;;;5062334;28;20049;-83
2023/09/19 02:38:54;;;;;;;1999.90;999.90;;;;;;;;;;5059377;28;20501;-83
2023/09/19 02:41:20;;;;;;;1999.90;999.90;;;;;;;;;;5058416;28;20053;-84
2023/09/19 02:43:47;;;;;;;1999.90;999.90;;;;;;;;;;5059171;28;20053;-84
2023/09/19 02:46:14;;;;;;;1999.90;999.90;;;;;;;;;;5056878;28;20064;-83
2023/09/19 02:48:41;;;;;;;1999.90;999.90;;;;;;;;;;5061320;28;20110;-83
2023/09/19 02:51:08;;;;;;;1999.90;999.90;;;;;;;;;;5058272;28;20056;-83
2023/09/19 02:53:36;;;;;;;1999.90;999.90;;;;;;;;;;5059109;28;20454;-83
2023/09/19 02:56:04;;;;;;;1999.90;999.90;;;;;;;;;;5055906;28;20080;-84
2023/09/19 02:58:35;;;;;;;1999.90;999.90;;;;;;;;;;5055656;28;20500;-84
2023/09/19 03:01:09;;;;;;;1999.90;999.90;;;;;;;;;;5059327;28;20041;-86
2023/09/19 03:03:37;;;;;;;1999.90;999.90;;;;;;;;;;5057176;28;20523;-83
2023/09/19 03:06:04;;;;;;;1999.90;999.90;;;;;;;;;;5058390;28;20049;-82
2023/09/19 03:08:31;;;;;;;1999.90;999.90;;;;;;;;;;5055941;28;20382;-83
2023/09/19 03:11:00;;;;;;;1999.90;999.90;;;;;;;;;;5056211;28;20077;-84
2023/09/19 03:13:27;;;;;;;1999.90;999.90;;;;;;;;;;5058481;28;20106;-83
2023/09/19 03:15:56;;;;;;;1999.90;999.90;;;;;;;;;;5058548;28;20049;-85
2023/09/19 03:18:23;;;;;;;1999.90;999.90;;;;;;;;;;5058829;28;20500;-82
2023/09/19 03:20:54;;;;;;;1999.90;999.90;;;;;;;;;;5053526;28;20052;-83
2023/09/19 03:23:21;;;;;;;1999.90;999.90;;;;;;;;;;5057465;28;20420;-83
2023/09/19 03:25:48;;;;;;;1999.90;999.90;;;;;;;;;;5057429;28;20045;-84
2023/09/19 03:28:16;;;;;;;1999.90;999.90;;;;;;;;;;5057197;28;20054;-82
2023/09/19 03:30:43;;;;;;;1999.90;999.90;;;;;;;;;;5053788;28;20052;-86
2023/09/19 03:33:10;;;;;;;1999.90;999.90;;;;;;;;;;5054868;28;20492;-84
2023/09/19 03:35:37;;;;;;;1999.90;999.90;;;;;;;;;;5055067;28;20106;-82
2023/09/19 03:38:04;;;;;;;1999.90;999.90;;;;;;;;;;5054209;28;20046;-83
2023/09/19 03:40:30;;;;;;;1999.90;999.90;;;;;;;;;;5058145;28;20045;-83
2023/09/19 03:42:57;;;;;;;1999.90;999.90;;;;;;;;;;5057568;28;20044;-84
2023/09/19 03:45:28;;;;;;;1999.90;999.90;;;;;;;;;;5052748;28;20326;-85
2023/09/19 03:47:54;;;;;;;1999.90;999.90;;;;;;;;;;5057035;28;20067;-82
2023/09/19 03:50:21;;;;;;;1999.90;999.90;;;;;;;;;;5055382;28;20059;-85
2023/09/19 03:52:47;;;;;;;1999.90;999.90;;;;;;;;;;5058804;28;20052;-84
2023/09/19 03:55:14;;;;;;;1999.90;999.90;;;;;;;;;;5058131;28;20049;-83
2023/09/19 03:57:41;;;;;;;1999.90;999.90;;;;;;;;;;5057046;28;20053;-84
2023/09/19 04:00:11;;;;;;;1999.90;999.90;;;;;;;;;;5059061;28;20051;-84
2023/09/19 04:02:39;;;;;;;1999.90;999.90;;;;;;;;;;5055429;28;20082;-83
2023/09/19 04:05:07;;;;;;;1999.90;999.90;;;;;;;;;;5058752;28;20563;-84
2023/09/19 04:07:34;;;;;;;1999.90;999.90;;;;;;;;;;5056677;28;20045;-82
2023/09/19 04:10:00;;;;;;;1999.90;999.90;;;;;;;;;;5056910;28;20053;-83
2023/09/19 04:12:27;;;;;;;1999.90;999.90;;;;;;;;;;5057520;28;20045;-83
2023/09/19 04:14:53;;;;;;;1999.90;999.90;;;;;;;;;;5055812;28;20067;-83
2023/09/19 04:17:20;;;;;;;1999.90;999.90;;;;;;;;;;5057787;28;20255;-84
2023/09/19 04:19:48;;;;;;;1999.90;999.90;;;;;;;;;;5061162;28;20052;-84
2023/09/19 04:22:14;;;;;;;1999.90;999.90;;;;;;;;;;5057879;28;20507;-84
2023/09/19 04:24:41;;;;;;;1999.90;999.90;;;;;;;;;;5058383;28;20045;-86
2023/09/19 04:27:08;;;;;;;1999.90;999.90;;;;;;;;;;5057847;28;20139;-82
2023/09/19 04:29:34;;;;;;;1999.90;999.90;;;;;;;;;;5059921;28;20409;-83
2023/09/19 04:32:04;;;;;;;1999.90;999.90;;;;;;;;;;5055311;28;20512;-84
2023/09/19 04:34:30;;;;;;;1999.90;999.90;;;;;;;;;;5062190;28;20049;-84
2023/09/19 04:37:00;;;;;;;1999.90;999.90;;;;;;;;;;5053285;28;20049;-84
2023/09/19 04:39:26;;;;;;;1999.90;999.90;;;;;;;;;;5053292;28;20064;-83
2023/09/19 04:41:53;;;;;;;1999.90;999.90;;;;;;;;;;5062368;28;20052;-83
2023/09/19 04:44:20;;;;;;;1999.90;999.90;;;;;;;;;;5050401;28;20155;-84
2023/09/19 04:46:47;;;;;;;1999.90;999.90;;;;;;;;;;5054192;28;20052;-83
2023/09/19 04:49:13;;;;;;;1999.90;999.90;;;;;;;;;;5057570;28;20056;-83
2023/09/19 04:51:40;;;;;;;1999.90;999.90;;;;;;;;;;5058692;28;20041;-84
2023/09/19 04:54:08;;;;;;;1999.90;999.90;;;;;;;;;;5061240;28;20048;-84
2023/09/19 04:56:35;;;;;;;1999.90;999.90;;;;;;;;;;5057285;28;20435;-83
2023/09/19 04:59:02;;;;;;;1999.90;999.90;;;;;;;;;;5057522;28;20083;-83
2023/09/19 05:01:28;;;;;;;1999.90;999.90;;;;;;;;;;5061388;28;20549;-84
2023/09/19 05:03:55;;;;;;;1999.90;999.90;;;;;;;;;;5060510;28;20061;-83
2023/09/19 05:06:22;;;;;;;1999.90;999.90;;;;;;;;;;5058039;28;20041;-86
2023/09/19 05:08:51;;;;;;;1999.90;999.90;;;;;;;;;;5061184;28;20044;-83
2023/09/19 05:11:21;;;;;;;1999.90;999.90;;;;;;;;;;5058939;28;20055;-84
2023/09/19 05:13:49;;;;;;;1999.90;999.90;;;;;;;;;;5057761;28;20045;-84
2023/09/19 05:16:16;;;;;;;1999.90;999.90;;;;;;;;;;5059526;28;20053;-84
2023/09/19 05:18:43;;;;;;;1999.90;999.90;;;;;;;;;;5058341;28;20110;-84
2023/09/19 05:21:09;;;;;;;1999.90;999.90;;;;;;;;;;5060849;28;20044;-83
2023/09/19 05:23:36;;;;;;;1999.90;999.90;;;;;;;;;;5060125;28;20040;-84
2023/09/19 05:26:05;;;;;;;1999.90;999.90;;;;;;;;;;5058484;28;20076;-84
2023/09/19 05:28:34;;;;;;;1999.90;999.90;;;;;;;;;;5058897;28;20036;-83
2023/09/19 05:31:01;;;;;;;1999.90;999.90;;;;;;;;;;5056884;28;20072;-84
2023/09/19 05:33:27;;;;;;;1999.90;999.90;;;;;;;;;;5056541;28;20140;-83
2023/09/19 05:35:54;;;;;;;1999.90;999.90;;;;;;;;;;5057455;28;20049;-84
2023/09/19 05:38:20;;;;;;;1999.90;999.90;;;;;;;;;;5061220;28;20447;-83
2023/09/19 05:40:47;;;;;;;1999.90;999.90;;;;;;;;;;5059040;28;20043;-81
2023/09/19 05:43:15;;;;;;;1999.90;999.90;;;;;;;;;;5059686;28;20053;-81
2023/09/19 05:45:42;;;;;;;1999.90;999.90;;;;;;;;;;5059590;28;20045;-81
2023/09/19 05:48:11;;;;;;;1999.90;999.90;;;;;;;;;;5057821;28;20073;-82
2023/09/19 05:50:38;;;;;;;1999.90;999.90;;;;;;;;;;5057341;28;20063;-81
2023/09/19 05:53:05;;;;;;;1999.90;999.90;;;;;;;;;;5059839;28;20128;-81
2023/09/19 05:55:31;;;;;;;1999.90;999.90;;;;;;;;;;5058448;28;20481;-81
2023/09/19 05:57:58;;;;;;;1999.90;999.90;;;;;;;;;;5057343;28;20052;-81
2023/09/19 06:00:27;;;;;;;1999.90;999.90;;;;;;;;;;5056768;28;20041;-81
2023/09/19 06:02:55;;;;;;;1999.90;999.90;;;;;;;;;;5058376;28;20413;-81
2023/09/19 06:05:22;;;;;;;1999.90;999.90;;;;;;;;;;5056980;28;20044;-82
2023/09/19 06:07:48;;;;;;;1999.90;999.90;;;;;;;;;;5058164;28;20044;-82
2023/09/19 06:10:15;;;;;;;1999.90;999.90;;;;;;;;;;5057435;28;20048;-83
2023/09/19 06:12:43;;;;;;;1999.90;999.90;;;;;;;;;;5056437;28;20057;-81
2023/09/19 06:15:14;;;;;;;1999.90;999.90;;;;;;;;;;5058278;28;20446;-81
2023/09/19 06:17:41;;;;;;;1999.90;999.90;;;;;;;;;;5060129;28;20052;-82
2023/09/19 06:20:14;;;;;;;1999.90;999.90;;;;;;;;;;5055812;28;20056;-84
2023/09/19 06:22:42;;;;;;;1999.90;999.90;;;;;;;;;;5062302;28;20417;-82
2023/09/19 06:25:11;;;;;;;1999.90;999.90;;;;;;;;;;5057829;28;20056;-81
2023/09/19 06:27:37;;;;;;;1999.90;999.90;;;;;;;;;;5059212;28;20045;-82
2023/09/19 06:30:06;;;;;;;1999.90;999.90;;;;;;;;;;5055683;28;20061;-85
2023/09/19 06:32:32;;;;;;;1999.90;999.90;;;;;;;;;;5056782;28;20045;-82
2023/09/19 06:34:59;;;;;;;1999.90;999.90;;;;;;;;;;5056367;28;20408;-83
2023/09/19 06:37:29;;;;;;;1999.90;999.90;;;;;;;;;;5064869;28;20045;-82
2023/09/19 06:39:56;;;;;;;1999.90;999.90;;;;;;;;;;5062646;28;20078;-82
2023/09/19 06:42:23;;;;;;;1999.90;999.90;;;;;;;;;;5059758;28;20052;-81
2023/09/19 06:44:49;;;;;;;1999.90;999.90;;;;;;;;;;5055713;28;20488;-81
2023/09/19 06:47:17;;;;;;;1999.90;999.90;;;;;;;;;;5054487;28;20055;-85
2023/09/19 06:49:43;;;;;;;1999.90;999.90;;;;;;;;;;5056885;28;20094;-82
2023/09/19 06:52:10;;;;;;;1999.90;999.90;;;;;;;;;;5059014;28;20738;-82
2023/09/19 06:54:39;;;;;;;1999.90;999.90;;;;;;;;;;5055683;28;20493;-82
2023/09/19 06:57:09;;;;;;;1999.90;999.90;;;;;;;;;;5060189;28;20056;-81
2023/09/19 06:59:36;;;;;;;1999.90;999.90;;;;;;;;;;5055616;28;20084;-82
2023/09/19 07:02:02;;;;;;;1999.90;999.90;;;;;;;;;;5059348;28;20057;-82
2023/09/19 07:04:29;;;;;;;1999.90;999.90;;;;;;;;;;5058359;28;20040;-81
2023/09/19 07:06:55;;;;;;;1999.90;999.90;;;;;;;;;;5057060;28;20056;-83
2023/09/19 07:09:22;;;;;;;1999.90;999.90;;;;;;;;;;5054850;28;20041;-84
2023/09/19 07:11:51;;;;;;;1999.90;999.90;;;;;;;;;;5054462;28;20041;-81
2023/09/19 07:14:17;;;;;;;1999.90;999.90;;;;;;;;;;5060581;28;20076;-81
2023/09/19 07:16:44;;;;;;;1999.90;999.90;;;;;;;;;;5054134;28;20045;-82
2023/09/19 07:19:11;;;;;;;1999.90;999.90;;;;;;;;;;5057366;28;20493;-83
2023/09/19 07:21:38;;;;;;;1999.90;999.90;;;;;;;;;;5051600;28;20309;-81
2023/09/19 07:24:05;;;;;;;1999.90;999.90;;;;;;;;;;5056197;28;20509;-83
2023/09/19 07:26:32;;;;;;;1999.90;999.90;;;;;;;;;;5053569;28;20505;-82
2023/09/19 07:29:02;;;;;;;1999.90;999.90;;;;;;;;;;5057430;28;20048;-82
2023/09/19 07:31:29;;;;;;;1999.90;999.90;;;;;;;;;;5057246;28;20045;-82
2023/09/19 07:33:55;;;;;;;1999.90;999.90;;;;;;;;;;5058445;28;20052;-81
2023/09/19 07:36:24;;;;;;;1999.90;999.90;;;;;;;;;;5058601;28;20041;-84
2023/09/19 07:38:50;;;;;;;1999.90;999.90;;;;;;;;;;5058520;28;20048;-83
2023/09/19 07:41:17;;;;;;;1999.90;999.90;;;;;;;;;;5057587;28;20456;-80
2023/09/19 07:43:44;;;;;;;1999.90;999.90;;;;;;;;;;5052503;28;20056;-84
2023/09/19 07:46:12;;;;;;;1999.90;999.90;;;;;;;;;;5057421;28;20563;-82
2023/09/19 07:48:40;;;;;;;1999.90;999.90;;;;;;;;;;5054500;28;20126;-81
2023/09/19 07:51:07;;;;;;;1999.90;999.90;;;;;;;;;;5057088;28;20087;-81
2023/09/19 07:53:35;;;;;;;1999.90;999.90;;;;;;;;;;5055238;28;20047;-84
2023/09/19 07:56:06;;;;;;;1999.90;999.90;;;;;;;;;;5056355;28;20057;-83
2023/09/19 07:58:33;;;;;;;1999.90;999.90;;;;;;;;;;5058219;28;20045;-81
2023/09/19 08:01:04;;;;;;;1999.90;999.90;;;;;;;;;;5055924;28;20048;-83
2023/09/19 08:03:32;;;;;;;1999.90;999.90;;;;;;;;;;5059144;28;20455;-81
2023/09/19 08:05:59;;;;;;;1999.90;999.90;;;;;;;;;;5052411;28;20440;-83
2023/09/19 08:08:26;;;;;;;1999.90;999.90;;;;;;;;;;5058438;28;20058;-83
2023/09/19 08:10:55;;;;;;;1999.90;999.90;;;;;;;;;;5053683;28;20044;-82
2023/09/19 08:13:21;;;;;;;1999.90;999.90;;;;;;;;;;5056528;28;20051;-81
2023/09/19 08:15:48;;;;;;;1999.90;999.90;;;;;;;;;;5051594;28;20045;-81
2023/09/19 08:18:15;;;;;;;1999.90;999.90;;;;;;;;;;5056792;28;20400;-83
2023/09/19 08:20:45;;;;;;;1999.90;999.90;;;;;;;;;;5057701;28;20040;-81
2023/09/19 08:23:12;;;;;;;1999.90;999.90;;;;;;;;;;5061065;28;20139;-84
2023/09/19 08:25:39;;;;;;;1999.90;999.90;;;;;;;;;;5061152;28;20114;-81
2023/09/19 08:28:08;;;;;;;1999.90;999.90;;;;;;;;;;5057573;28;20052;-81
2023/09/19 08:30:35;;;;;;;1999.90;999.90;;;;;;;;;;5058269;28;20045;-83
2023/09/19 08:33:04;;;;;;;1999.90;999.90;;;;;;;;;;5057317;28;20512;-82
2023/09/19 08:35:31;;;;;;;1999.90;999.90;;;;;;;;;;5063416;28;20049;-81
2023/09/19 08:38:00;;;;;;;1999.90;999.90;;;;;;;;;;5063215;28;20041;-82
2023/09/19 08:40:29;;;;;;;1999.90;999.90;;;;;;;;;;5063072;28;20045;-82
2023/09/19 08:42:57;;;;;;;1999.90;999.90;;;;;;;;;;5059486;28;20415;-82
2023/09/19 08:45:27;;;;;;;1999.90;999.90;;;;;;;;;;5060910;28;20051;-82
2023/09/19 08:48:05;;;;;;;1999.90;999.90;;;;;;;;;;5059515;28;20119;-82
2023/09/19 08:50:32;;;;;;;1999.90;999.90;;;;;;;;;;5061980;28;20121;-84
2023/09/19 08:53:02;;;;;;;1999.90;999.90;;;;;;;;;;5060973;28;20516;-81
2023/09/19 08:55:29;;;;;;;1999.90;999.90;;;;;;;;;;5058780;28;20157;-83
2023/09/19 08:58:04;;;;;;;1999.90;999.90;;;;;;;;;;5058608;28;20146;-84
2023/09/19 09:00:31;;;;;;;1999.90;999.90;;;;;;;;;;5057565;28;20055;-86
2023/09/19 09:03:00;;;;;;;1999.90;999.90;;;;;;;;;;5063170;28;20089;-82
2023/09/19 09:05:27;;;;;;;1999.90;999.90;;;;;;;;;;5059473;28;20053;-87
2023/09/19 09:07:56;;;;;;;1999.90;999.90;;;;;;;;;;5064054;28;20046;-84
2023/09/19 09:10:24;;;;;;;1999.90;999.90;;;;;;;;;;5062897;28;20429;-84
2023/09/19 09:12:52;;;;;;;1999.90;999.90;;;;;;;;;;5055529;28;20056;-84
2023/09/19 09:15:22;;;;;;;1999.90;999.90;;;;;;;;;;5059046;28;20049;-82
2023/09/19 09:17:50;;;;;;;1999.90;999.90;;;;;;;;;;5060124;28;20060;-83
2023/09/19 09:20:16;;;;;;;1999.90;999.90;;;;;;;;;;5058371;28;20049;-82
2023/09/19 09:22:52;;;;;;;1999.90;999.90;;;;;;;;;;5060354;28;20481;-82
2023/09/19 09:25:18;;;;;;;1999.90;999.90;;;;;;;;;;5059322;28;20049;-84
2023/09/19 09:27:49;;;;;;;1999.90;999.90;;;;;;;;;;5057914;28;20052;-81
2023/09/19 09:30:33;;;;;;;1999.90;999.90;;;;;;;;;;5057887;28;20071;-81
2023/09/19 09:33:10;;;;;;;1999.90;999.90;;;;;;;;;;5059884;28;20049;-83
2023/09/19 09:35:36;;;;;;;1999.90;999.90;;;;;;;;;;5058995;28;20055;-83
2023/09/19 09:38:08;;;;;;;1999.90;999.90;;;;;;;;;;5062330;28;20056;-84
2023/09/19 09:40:49;;;;;;;1999.90;999.90;;;;;;;;;;5059636;28;20354;-85
2023/09/19 09:43:35;;;;;;;1999.90;999.90;;;;;;;;;;5059521;28;20614;-82
2023/09/19 09:49:19;;;;;;;1999.90;999.90;;;;;;;;;;5059780;28;20049;-84
2023/09/19 09:51:57;;;;;;;1999.90;999.90;;;;;;;;;;5060427;28;20077;-83
2023/09/19 09:54:27;;;;;;;1999.90;999.90;;;;;;;;;;5060780;28;20041;-82
2023/09/19 09:56:58;;;;;;;1999.90;999.90;;;;;;;;;;5056721;28;20048;-82
2023/09/19 09:59:46;;;;;;;1999.90;999.90;;;;;;;;;;5056076;28;20130;-84
2023/09/19 10:02:13;;;;;;;1999.90;999.90;;;;;;;;;;5057192;28;20053;-82
2023/09/19 10:04:51;;;;;;;1999.90;999.90;;;;;;;;;;5058998;28;20497;-83
2023/09/19 10:07:27;;;;;;;1999.90;999.90;;;;;;;;;;5062846;28;20047;-82
2023/09/19 10:09:59;;;;;;;1999.90;999.90;;;;;;;;;;5061009;28;20036;-82
2023/09/19 10:12:28;;;;;;;1999.90;999.90;;;;;;;;;;5060250;28;20517;-83
2023/09/19 10:14:57;;;;;;;1999.90;999.90;;;;;;;;;;5060698;28;20048;-82
2023/09/19 10:17:26;;;;;;;1999.90;999.90;;;;;;;;;;5054760;28;20044;-84
2023/09/19 10:19:57;;;;;;;1999.90;999.90;;;;;;;;;;5056801;28;20041;-85
2023/09/19 10:22:24;;;;;;;1999.90;999.90;;;;;;;;;;5056723;28;20079;-83
2023/09/19 10:24:53;;;;;;;1999.90;999.90;;;;;;;;;;5055902;28;20069;-81
2023/09/19 10:27:20;;;;;;;1999.90;999.90;;;;;;;;;;5060068;28;20063;-83
2023/09/19 10:29:50;;;;;;;1999.90;999.90;;;;;;;;;;5060327;28;20470;-83
2023/09/19 10:32:19;;;;;;;1999.90;999.90;;;;;;;;;;5057756;28;20053;-82
2023/09/19 10:34:47;;;;;;;1999.90;999.90;;;;;;;;;;5061402;28;20078;-83
2023/09/19 10:37:16;;;;;;;1999.90;999.90;;;;;;;;;;5061150;28;20490;-82
2023/09/19 10:39:46;;;;;;;1999.90;999.90;;;;;;;;;;5053937;28;20056;-82
2023/09/19 10:42:17;;;;;;;1999.90;999.90;;;;;;;;;;5053474;28;20489;-82
2023/09/19 10:44:47;;;;;;;1999.90;999.90;;;;;;;;;;5061713;28;20060;-83
2023/09/19 10:47:14;;;;;;;1999.90;999.90;;;;;;;;;;5060105;28;20040;-82
2023/09/19 10:49:47;;;;;;;1999.90;999.90;;;;;;;;;;5061093;28;20148;-84
2023/09/19 10:52:18;;;;;;;1999.90;999.90;;;;;;;;;;5059154;28;20100;-82
2023/09/19 10:54:47;;;;;;;1999.90;999.90;;;;;;;;;;5058422;28;20098;-84
2023/09/19 10:57:16;;;;;;;1999.90;999.90;;;;;;;;;;5056964;28;20114;-82
2023/09/19 11:00:21;;;;;;;1999.90;999.90;;;;;;;;;;5058755;28;20144;-83
2023/09/19 11:03:20;;;;;;;1999.90;999.90;;;;;;;;;;5064568;28;20053;-82
2023/09/19 11:06:06;;;;;;;1999.90;999.90;;;;;;;;;;5060332;28;20465;-81
2023/09/19 11:08:39;;;;;;;;;;;;;;;;;;5058130;28;20511;-82
2023/09/19 11:11:46;;;;;;;1999.90;999.90;;;;;;;;;;5058252;28;19928;-82
2023/09/19 11:14:31;;;;;;;1999.90;999.90;;;;;;;;;;5059256;28;20376;-82
2023/09/19 11:17:32;;;;;;;1999.90;999.90;;;;;;;;;;5056145;28;20571;-84
2023/09/19 11:20:24;;;;;;;1999.90;999.90;;;;;;;;;;5057105;28;20295;-83
2023/09/19 11:23:22;;;;;;;1999.90;999.90;;;;;;;;;;5057994;28;20052;-82
2023/09/19 11:25:54;;;;;;;1999.90;999.90;;;;;;;;;;5058635;28;20053;-84
2023/09/19 11:28:38;;;;;;;1999.90;999.90;;;;;;;;;;5060096;28;20392;-82
2023/09/19 11:31:53;;;;;;;1999.90;999.90;;;;;;;;;;5054742;28;20053;-81
2023/09/19 11:34:41;;;;;;;1999.90;999.90;;;;;;;;;;5058515;28;20086;-84
2023/09/19 11:37:45;;;;;;;1999.90;999.90;;;;;;;;;;5058552;28;20056;-82
2023/09/19 11:40:16;;;;;;;1999.90;999.90;;;;;;;;;;5056905;28;20124;-83
2023/09/19 11:42:44;;;;;;;1999.90;999.90;;;;;;;;;;5059639;28;20056;-81
2023/09/19 11:45:46;;;;;;;1999.90;999.90;;;;;;;;;;5057019;28;20117;-82
2023/09/19 11:48:14;;;;;;;1999.90;999.90;;;;;;;;;;5030996;28;20796;-82
2023/09/19 11:50:44;;;;;;;1999.90;999.90;;;;;;;;;;5057311;28;20053;-83
2023/09/19 11:53:11;;;;;;;1999.90;999.90;;;;;;;;;;5057764;28;20053;-83
2023/09/19 11:55:39;;;;;;;1999.90;999.90;;;;;;;;;;5056387;28;20136;-81
2023/09/19 11:58:07;;;;;;;1999.90;999.90;;;;;;;;;;5062411;28;20045;-82
2023/09/19 12:00:35;;;;;;;1999.90;999.90;;;;;;;;;;5057531;28;20062;-84
2023/09/19 12:03:09;;;;;;;1999.90;999.90;;;;;;;;;;5059102;28;20063;-83
2023/09/19 12:05:37;;;;;;;1999.90;999.90;;;;;;;;;;5057633;28;20515;-84
2023/09/19 12:08:04;;;;;;;1999.90;999.90;;;;;;;;;;5054728;28;20125;-83
2023/09/19 12:10:31;;;;;;;1999.90;999.90;;;;;;;;;;5056493;28;20123;-84
2023/09/19 12:12:59;;;;;;;1999.90;999.90;;;;;;;;;;5057601;28;20068;-84
2023/09/19 12:15:33;;;;;;;1999.90;999.90;;;;;;;;;;5055012;28;20048;-87
2023/09/19 12:18:00;;;;;;;1999.90;999.90;;;;;;;;;;5060035;28;20098;-84
2023/09/19 12:20:46;;;;;;;1999.90;999.90;;;;;;;;;;5061162;28;20059;-83
2023/09/19 12:23:15;;;;;;;1999.90;999.90;;;;;;;;;;5058575;28;20412;-83
2023/09/19 12:25:46;;;;;;;1999.90;999.90;;;;;;;;;;5057674;28;20559;-82
2023/09/19 12:28:16;;;;;;;1999.90;999.90;;;;;;;;;;5059234;28;20440;-83
2023/09/19 12:30:43;;;;;;;1999.90;999.90;;;;;;;;;;5056248;28;20165;-82
2023/09/19 12:33:18;;;;;;;1999.90;999.90;;;;;;;;;;5055669;28;20052;-83
2023/09/19 12:35:45;;;;;;;1999.90;999.90;;;;;;;;;;5059071;28;20121;-84
2023/09/19 12:38:12;;;;;;;1999.90;999.90;;;;;;;;;;5059459;28;20064;-85
2023/09/19 12:40:42;;;;;;;1999.90;999.90;;;;;;;;;;5059701;28;20103;-84
2023/09/19 12:43:15;;;;;;;1999.90;999.90;;;;;;;;;;5057286;28;20528;-84
2023/09/19 12:45:44;;;;;;;1999.90;999.90;;;;;;;;;;5063275;28;20080;-83
2023/09/19 12:48:31;;;;;;;1999.90;999.90;;;;;;;;;;5056450;28;20041;-83
2023/09/19 12:51:07;;;;;;;1999.90;999.90;;;;;;;;;;5057207;28;20501;-83
2023/09/19 12:53:37;;;;;;;1999.90;999.90;;;;;;;;;;5058493;28;20386;-84
2023/09/19 12:56:06;;;;;;;1999.90;999.90;;;;;;;;;;5060965;28;20060;-83
2023/09/19 12:58:34;;;;;;;1999.90;999.90;;;;;;;;;;5060446;28;20045;-88
2023/09/19 13:01:05;;;;;;;1999.90;999.90;;;;;;;;;;5059317;28;20047;-83
2023/09/19 13:03:34;;;;;;;1999.90;999.90;;;;;;;;;;5055770;28;20049;-83
2023/09/19 13:06:03;;;;;;;1999.90;999.90;;;;;;;;;;5056368;28;20052;-83
2023/09/19 13:08:33;;;;;;;1999.90;999.90;;;;;;;;;;5058345;28;20084;-83
2023/09/19 13:11:03;;;;;;;1999.90;999.90;;;;;;;;;;5059114;28;20052;-83
2023/09/19 13:13:30;;;;;;;1999.90;999.90;;;;;;;;;;5063846;28;20044;-83
2023/09/19 13:15:58;;;;;;;1999.90;999.90;;;;;;;;;;5061213;28;20041;-83
2023/09/19 13:18:26;;;;;;;1999.90;999.90;;;;;;;;;;5060406;28;20072;-84
2023/09/19 13:21:06;;;;;;;1999.90;999.90;;;;;;;;;;5060894;28;20401;-82
2023/09/19 13:23:33;;;;;;;1999.90;999.90;;;;;;;;;;5056619;28;20076;-84
2023/09/19 13:25:59;;;;;;;1999.90;999.90;;;;;;;;;;5056215;28;20049;-84
2023/09/19 13:28:27;;;;;;;1999.90;999.90;;;;;;;;;;5058873;28;20052;-83
2023/09/19 13:30:54;;;;;;;1999.90;999.90;;;;;;;;;;5058096;28;20123;-82
2023/09/19 13:33:21;;;;;;;1999.90;999.90;;;;;;;;;;5059680;28;20497;-84
2023/09/19 13:35:49;;;;;;;1999.90;999.90;;;;;;;;;;5061534;28;20080;-84
2023/09/19 13:38:15;;;;;;;1999.90;999.90;;;;;;;;;;5057139;28;20049;-83
2023/09/19 13:40:42;;;;;;;1999.90;999.90;;;;;;;;;;5062776;28;20378;-84
2023/09/19 13:43:09;;;;;;;1999.90;999.90;;;;;;;;;;5062988;28;20249;-85
2023/09/19 13:45:36;;;;;;;1999.90;999.90;;;;;;;;;;5061326;28;20421;-83
2023/09/19 13:48:03;;;;;;;1999.90;999.90;;;;;;;;;;5060958;28;20045;-85
2023/09/19 13:50:31;;;;;;;1999.90;999.90;;;;;;;;;;5059823;28;20045;-84
2023/09/19 13:53:00;;;;;;;1999.90;999.90;;;;;;;;;;5058699;28;20404;-83
2023/09/19 13:55:26;;;;;;;1999.90;999.90;;;;;;;;;;5057629;28;20567;-84
2023/09/19 13:57:54;;;;;;;1999.90;999.90;;;;;;;;;;5062867;28;20053;-83
2023/09/19 14:00:22;;;;;;;1999.90;999.90;;;;;;;;;;5060234;28;20056;-83